Historique des stations

Station météo de Digny

Altitude de la station : 230 m







Données météorologiques pour le 28/01/2022
Date
Heure
Températures Humidité Point de rosée Vitesse
du vent
Direction Rafales Windchill Pression Pluviométrie
Cumul
Date
Heure
Températures Humidité Point de rosée Vitesse
du vent
Direction Rafales Windchill Pression Pluviométrie
Cumul
28/01/2022 16:174.4 °C99 %4.4 °C5 km/h--3.3 1035 hPa-
28/01/2022 16:154.4 °C99 %4.4 °C6 km/hSSE14 km/h2.8 1035 hPa-
28/01/2022 16:024.5 °C99 %4.4 °C6 km/h--2.8 1035 hPa-
28/01/2022 16:004.6 °C99 %4.4 °C3 km/hSSE14 km/h3.3 1035 hPa-
28/01/2022 15:474.6 °C99 %4.4 °C---4.4 1035 hPa-
28/01/2022 15:454.6 °C99 %4.4 °C3 km/hS14 km/h3.3 1035 hPa-
28/01/2022 15:324.5 °C99 %4.4 °C6 km/h--2.8 1035 hPa-
28/01/2022 15:304.5 °C99 %4.4 °C10 km/hSSE14 km/h2.2 1035 hPa-
28/01/2022 15:174.4 °C99 %4.4 °C6 km/h--2.8 1035 hPa-
28/01/2022 15:154.4 °C99 %4.4 °C10 km/hS14 km/h2.2 1035 hPa-
28/01/2022 15:024.4 °C99 %4.4 °C3 km/h--3.3 1035 hPa-
28/01/2022 15:004.4 °C99 %4.4 °C3 km/hSO14 km/h3.3 1035 hPa-
28/01/2022 14:474.4 °C99 %4.4 °C6 km/h--2.8 1035 hPa-
28/01/2022 14:454.6 °C99 %4.4 °C6 km/hSSO14 km/h2.8 1035 hPa-
28/01/2022 14:324.5 °C99 %4.4 °C8 km/h--2.2 1035 hPa-
28/01/2022 14:304.5 °C99 %4.4 °C10 km/hSSE14 km/h2.2 1035 hPa-
28/01/2022 14:174.5 °C99 %4.4 °C8 km/h--2.2 1035 hPa-
28/01/2022 14:154.5 °C99 %4.4 °C6 km/hSSE14 km/h2.8 1035 hPa-
28/01/2022 14:024.5 °C99 %4.4 °C6 km/h--2.8 1036 hPa-
28/01/2022 14:004.6 °C99 %4.4 °C3 km/hSSO14 km/h3.3 1036 hPa-
28/01/2022 13:484.6 °C99 %4.4 °C8 km/h--2.2 1036 hPa-
28/01/2022 13:454.5 °C99 %4.4 °C10 km/hS14 km/h2.2 1036 hPa-
28/01/2022 13:324.7 °C99 %4.4 °C6 km/h--2.8 1036 hPa-
28/01/2022 13:304.7 °C99 %4.4 °C2 km/hSE13 km/h5.0 1036 hPa-
28/01/2022 13:174.8 °C99 %5.0 °C3 km/h--4.4 1036 hPa-
28/01/2022 13:144.8 °C99 %5.0 °C6 km/hSSE13 km/h3.9 1036 hPa-
28/01/2022 13:025.0 °C99 %5.0 °C3 km/h--4.4 1036 hPa-
28/01/2022 12:595.1 °C99 %5.0 °C5 km/hS13 km/h4.4 1036 hPa-
28/01/2022 12:474.8 °C99 %4.4 °C6 km/h--3.9 1036 hPa-
28/01/2022 12:444.8 °C99 %4.4 °C10 km/hSSE13 km/h2.8 1036 hPa-
28/01/2022 12:324.7 °C99 %4.4 °C3 km/h--4.4 1037 hPa-
28/01/2022 12:294.8 °C99 %4.4 °C3 km/hOSO13 km/h4.4 1037 hPa-
28/01/2022 12:174.7 °C99 %4.4 °C8 km/h--2.2 1037 hPa-
28/01/2022 12:144.6 °C99 %4.4 °C5 km/hSSO13 km/h3.3 1037 hPa-
28/01/2022 12:024.7 °C99 %4.4 °C5 km/h--4.4 1037 hPa-
28/01/2022 11:594.7 °C99 %4.4 °C2 km/hSSO13 km/h5.0 1037 hPa-
28/01/2022 11:474.7 °C99 %4.4 °C5 km/h--4.4 1037 hPa-
28/01/2022 11:444.7 °C99 %4.4 °C5 km/hSO13 km/h4.4 1037 hPa-
28/01/2022 11:324.8 °C99 %4.4 °C---5.0 1037 hPa-
28/01/2022 11:294.8 °C99 %4.4 °C5 km/hS13 km/h4.4 1036 hPa-
28/01/2022 11:174.7 °C99 %4.4 °C3 km/h--3.3 1036 hPa-
28/01/2022 11:144.6 °C99 %4.4 °C5 km/hS13 km/h3.3 1036 hPa-
28/01/2022 11:024.6 °C99 %4.4 °C3 km/h--3.3 1036 hPa-
28/01/2022 10:594.6 °C99 %4.4 °C3 km/hSE13 km/h3.3 1036 hPa-
28/01/2022 10:474.7 °C99 %4.4 °C3 km/h--4.4 1036 hPa-
28/01/2022 10:444.7 °C99 %4.4 °C6 km/hSE13 km/h2.8 1036 hPa-
28/01/2022 10:324.9 °C99 %5.0 °C6 km/h--3.9 1036 hPa-
28/01/2022 10:294.8 °C99 %5.0 °C2 km/hSE13 km/h5.0 1036 hPa-
28/01/2022 10:174.9 °C99 %5.0 °C3 km/h--4.4 1036 hPa-
28/01/2022 10:144.9 °C99 %5.0 °C2 km/hO13 km/h5.0 1036 hPa-
28/01/2022 10:024.8 °C99 %4.4 °C3 km/h--4.4 1036 hPa-
28/01/2022 09:594.8 °C99 %4.4 °C2 km/hO13 km/h5.0 1036 hPa-
28/01/2022 09:474.6 °C99 %4.4 °C---4.4 1036 hPa-
28/01/2022 09:444.6 °C99 %4.4 °C2 km/hONO13 km/h3.9 1036 hPa-
28/01/2022 09:324.2 °C99 %3.9 °C---4.4 1036 hPa-
28/01/2022 09:294.2 °C98 %3.9 °C-ONO13 km/h4.4 1035 hPa-
28/01/2022 09:174.2 °C98 %3.9 °C---4.4 1035 hPa-
28/01/2022 09:144.2 °C98 %3.9 °C-ONO13 km/h4.4 1035 hPa-
28/01/2022 09:024.4 °C99 %4.4 °C2 km/h--3.9 1035 hPa-
28/01/2022 08:594.4 °C99 %4.4 °C-ONO13 km/h4.4 1035 hPa-
28/01/2022 08:474.1 °C98 %3.9 °C---3.9 1035 hPa-
28/01/2022 08:444.1 °C98 %3.9 °C-ONO13 km/h3.9 1035 hPa-
28/01/2022 08:324.1 °C98 %3.9 °C---3.9 1035 hPa-
28/01/2022 08:304.2 °C98 %3.9 °C2 km/hONO13 km/h3.9 1035 hPa-
28/01/2022 08:174.9 °C99 %5.0 °C---5.0 1035 hPa-
28/01/2022 08:154.8 °C99 %5.0 °C2 km/hONO13 km/h5.0 1035 hPa-
28/01/2022 08:024.4 °C99 %4.4 °C6 km/h--2.8 1035 hPa-
28/01/2022 08:004.3 °C99 %4.4 °C6 km/hO13 km/h2.8 1034 hPa-
28/01/2022 07:473.8 °C99 %3.9 °C5 km/h--2.8 1034 hPa-
28/01/2022 07:453.8 °C99 %3.9 °C5 km/hONO13 km/h2.8 1034 hPa-
28/01/2022 07:323.3 °C98 %3.3 °C6 km/h--1.7 1034 hPa-
28/01/2022 07:303.3 °C98 %2.8 °C6 km/hO13 km/h1.7 1034 hPa-
28/01/2022 07:173.3 °C97 %2.8 °C2 km/h--2.8 1034 hPa-
28/01/2022 07:153.4 °C97 %2.8 °C3 km/hOSO13 km/h2.2 1034 hPa-
28/01/2022 07:024.1 °C97 %3.9 °C6 km/h--2.2 1034 hPa-
28/01/2022 07:004.2 °C98 %3.9 °C5 km/hONO13 km/h3.3 1034 hPa-
28/01/2022 06:474.6 °C98 %4.4 °C3 km/h--3.3 1034 hPa-
28/01/2022 06:454.7 °C98 %4.4 °C3 km/hONO13 km/h3.3 1034 hPa-
28/01/2022 06:325.0 °C98 %5.0 °C2 km/h--5.0 1034 hPa-
28/01/2022 06:305.0 °C98 %5.0 °C2 km/hO13 km/h5.0 1034 hPa-
28/01/2022 06:175.1 °C98 %5.0 °C3 km/h--4.4 1034 hPa-
28/01/2022 06:155.1 °C98 %5.0 °C3 km/hO13 km/h4.4 1034 hPa-
28/01/2022 06:025.0 °C98 %5.0 °C3 km/h--4.4 1034 hPa-
28/01/2022 06:005.0 °C98 %5.0 °C3 km/hO13 km/h4.4 1034 hPa-
28/01/2022 05:474.9 °C98 %4.4 °C2 km/h--5.0 1034 hPa-
28/01/2022 05:454.9 °C98 %4.4 °C-OSO13 km/h5.0 1034 hPa-
28/01/2022 05:324.9 °C98 %4.4 °C5 km/h--4.4 1034 hPa-
28/01/2022 05:304.9 °C98 %4.4 °C5 km/hOSO13 km/h4.4 1034 hPa-
28/01/2022 05:175.0 °C98 %5.0 °C3 km/h--4.4 1034 hPa-
28/01/2022 05:154.9 °C98 %4.4 °C5 km/hONO13 km/h4.4 1034 hPa-
28/01/2022 05:024.8 °C98 %4.4 °C5 km/h--4.4 1034 hPa-
28/01/2022 05:004.8 °C98 %4.4 °C5 km/hNO13 km/h4.4 1034 hPa-
28/01/2022 04:474.6 °C98 %4.4 °C---4.4 1034 hPa-
28/01/2022 04:454.6 °C98 %4.4 °C2 km/hENE13 km/h3.9 1034 hPa-
28/01/2022 04:324.4 °C98 %3.9 °C---4.4 1034 hPa-
28/01/2022 04:304.4 °C98 %4.4 °C2 km/hENE13 km/h3.9 1034 hPa-
28/01/2022 04:174.4 °C98 %3.9 °C2 km/h--3.9 1033 hPa-
28/01/2022 04:154.3 °C98 %3.9 °C3 km/hSSE13 km/h3.3 1034 hPa-
28/01/2022 04:024.4 °C97 %3.9 °C3 km/h--3.3 1034 hPa-
28/01/2022 04:004.6 °C97 %4.4 °C2 km/hS13 km/h3.9 1034 hPa-
28/01/2022 03:474.8 °C98 %4.4 °C2 km/h--5.0 1034 hPa-
28/01/2022 03:454.8 °C98 %4.4 °C2 km/hS13 km/h5.0 1034 hPa-
28/01/2022 03:315.1 °C98 %5.0 °C2 km/h--5.0 1033 hPa-
28/01/2022 03:295.1 °C98 %5.0 °C-SSE13 km/h5.0 1033 hPa-
28/01/2022 03:165.3 °C98 %5.0 °C2 km/h--5.6 1033 hPa-
28/01/2022 03:145.2 °C98 %5.0 °C-SSE13 km/h5.0 1033 hPa-
28/01/2022 03:014.9 °C98 %4.4 °C2 km/h--5.0 1033 hPa-
28/01/2022 02:594.9 °C98 %4.4 °C5 km/hS13 km/h4.4 1033 hPa-
28/01/2022 02:465.1 °C97 %4.4 °C5 km/h--4.4 1033 hPa-
28/01/2022 02:445.2 °C98 %5.0 °C3 km/hSSO13 km/h4.4 1033 hPa-
28/01/2022 02:315.6 °C98 %5.6 °C---5.6 1033 hPa-
28/01/2022 02:295.6 °C98 %5.6 °C5 km/hSSO13 km/h5.0 1033 hPa-
28/01/2022 02:165.6 °C98 %5.6 °C6 km/h--4.4 1033 hPa-
28/01/2022 02:145.5 °C98 %5.0 °C8 km/hSO13 km/h3.3 1033 hPa-
28/01/2022 02:015.1 °C97 %4.4 °C5 km/h--4.4 1033 hPa-
28/01/2022 01:595.1 °C97 %4.4 °C3 km/hSO13 km/h4.4 1033 hPa-
28/01/2022 01:465.6 °C98 %5.6 °C2 km/h--5.6 1033 hPa-
28/01/2022 01:445.6 °C98 %5.6 °C2 km/hS13 km/h5.6 1033 hPa-
28/01/2022 01:335.6 °C98 %5.6 °C5 km/h--5.0 1033 hPa-
28/01/2022 01:295.6 °C98 %5.6 °C3 km/hSSO13 km/h5.0 1032 hPa-
28/01/2022 01:195.6 °C98 %5.6 °C2 km/h--5.6 1033 hPa-
28/01/2022 01:145.6 °C98 %5.6 °C3 km/hSO13 km/h5.0 1033 hPa-
28/01/2022 01:045.5 °C98 %5.0 °C3 km/h--5.0 1033 hPa-
28/01/2022 00:595.4 °C97 %5.0 °C5 km/hSO13 km/h5.0 1032 hPa-
28/01/2022 00:495.6 °C97 %5.0 °C8 km/h--3.3 1032 hPa-
28/01/2022 00:445.7 °C98 %5.6 °C3 km/hSO13 km/h5.0 1032 hPa-
28/01/2022 00:315.7 °C98 %5.6 °C6 km/h--4.4 1032 hPa-
28/01/2022 00:295.7 °C98 %5.6 °C2 km/hSO13 km/h5.6 1032 hPa-
28/01/2022 00:165.8 °C97 %5.6 °C2 km/h--5.6 1032 hPa-
28/01/2022 00:145.8 °C98 %5.6 °C5 km/hOSO11 km/h5.0 1032 hPa-
28/01/2022 00:015.7 °C98 %5.6 °C8 km/h--3.3 1032 hPa-


Minima :

Température : 3.3 °C
Humidité : 97 %
Point de rosée : 2.8 °C
Vent moyen : 2 km/h
Windchill : 1.7
Pression atm. : 1032 hPa
Maxima :

Température : 5.8 °C
Humidité : 99 %
Point de rosée : 5.6 °C
Vent moyen : 10 km/h
Windchill : 5.6
Pression atm. : 1037 hPa
Rafales max : 14 km/h
Cumul de pluie sur 24H : 0 mm

Digny est une commune du département Eure-et-Loir (28).
La station météorologique du réseau de l'association la plus proche de Digny est celle de Le Mesnil-Thomas



Icône Facebook Association Météo Centre Icône Twitter Association Météo Centre Icône Chaîne Youtube Association Météo Centre Icône contact Association Météo Centre Icône Insta Association Météo Centre